GUN weather

Guamito Airport
Palermo, Huila Department, Colombia

Public forecast

Using degrees Celsius for public forecast. Weather courtesy of forecast.io.

Closest aviation weather report (METAR) to Guamito Airport

Closest report is Benito Salas Airport, 6.5 nm (12.1 km) ENE. Retrieved 2019/10/14 19:00 UTC (41 minutes ago):

SKNV 141900Z 19007KT 9999 VCSH FEW045 BKN120 32/17 A2984 RMK VCSH/N/E

Closest aviation forecast (TAF) to Guamito Airport

Closest forecast is Alfonso Bonilla Aragon International Airport, 70.1 nm (129.8 km) WNW. Retrieved 2019/10/14 18:54 UTC (47 minutes ago):

TAF SKCL 141630Z 1418/1518 29006KT 9999 SCT020TCU SCT130 TEMPO 1419/1422 8000 VCSH BECMG 1423/1501 SCT015 BKN100 PROB40 TEMPO 1503/1508 7000 DZRA SCT015TCU TEMPO 1511/1514 7000 VCFG BKN030 TX31/1419Z TN19/1511Z